createdAt,value
2024-01-11T00:00:11.516Z,100345.27
2024-01-11T00:01:13.761Z,100332.27
2024-01-11T00:02:17.183Z,100333.98
2024-01-11T00:03:19.955Z,100337.45
2024-01-11T00:04:22.422Z,100327.91
2024-01-11T00:05:25.143Z,100320.95
2024-01-11T00:06:28.379Z,100310.55
2024-01-11T00:07:31.030Z,100314.89
2024-01-11T00:08:33.759Z,100313.15
2024-01-11T00:09:41.908Z,100309.69
2024-01-11T00:10:44.391Z,100315.76
2024-01-11T00:11:47.174Z,100307.95
2024-01-11T00:12:49.600Z,100307.95
2024-01-11T00:13:52.303Z,100307.08
2024-01-11T00:14:54.569Z,100302.73
2024-01-11T00:15:57.868Z,100303.61
2024-01-11T00:17:00.825Z,100307.95
2024-01-11T00:18:03.704Z,100308.83
2024-01-11T00:19:06.792Z,100311.44
2024-01-11T00:20:10.957Z,100302.77
2024-01-11T00:21:13.971Z,100301.87
2024-01-11T00:22:20.111Z,100301.87
2024-01-11T00:23:22.611Z,100296.68
2024-01-11T00:24:26.030Z,100302.76
2024-01-11T00:25:29.915Z,100309.70
2024-01-11T00:26:32.448Z,100309.70
2024-01-11T00:27:35.384Z,100306.22
2024-01-11T00:28:38.129Z,100297.55
2024-01-11T00:29:41.195Z,100301.02
2024-01-11T00:30:44.301Z,100297.55
2024-01-11T00:31:46.869Z,100296.69
2024-01-11T00:32:49.592Z,100295.81
2024-01-11T00:33:52.401Z,100299.30
2024-01-11T00:34:55.033Z,100297.56
2024-01-11T00:35:57.402Z,100295.81
2024-01-11T00:37:00.562Z,100292.34
2024-01-11T00:38:03.271Z,100297.55
2024-01-11T00:39:05.601Z,100294.94
2024-01-11T00:40:09.085Z,100290.59
2024-01-11T00:41:11.418Z,100296.67
2024-01-11T00:42:13.910Z,100302.73
2024-01-11T00:43:16.328Z,100301.87
2024-01-11T00:44:19.133Z,100297.53
2024-01-11T00:45:21.336Z,100290.59
2024-01-11T00:46:24.122Z,100291.45
2024-01-11T00:47:26.432Z,100281.92
2024-01-11T00:48:28.985Z,100281.92
2024-01-11T00:49:31.885Z,100274.11
2024-01-11T00:50:34.954Z,100281.92
2024-01-11T00:51:37.419Z,100281.05
2024-01-11T00:52:40.366Z,100283.64
2024-01-11T00:53:42.876Z,100271.48
2024-01-11T00:54:45.459Z,100271.49
2024-01-11T00:55:47.700Z,100264.57
2024-01-11T00:56:50.700Z,100261.11
2024-01-11T00:57:53.151Z,100259.36
2024-01-11T00:58:55.435Z,100252.41
2024-01-11T00:59:58.405Z,100248.08
2024-01-11T01:01:00.791Z,100248.94
2024-01-11T01:02:03.456Z,100244.61
2024-01-11T01:03:05.869Z,100248.06
2024-01-11T01:04:08.249Z,100239.39
2024-01-11T01:05:11.654Z,100236.80
2024-01-11T01:06:15.846Z,100240.27
2024-01-11T01:08:36.878Z,100234.20
2024-01-11T01:09:39.205Z,100235.91
2024-01-11T01:10:41.680Z,100231.56
2024-01-11T01:11:44.074Z,100227.23
2024-01-11T01:12:46.811Z,100227.23
2024-01-11T01:13:49.533Z,100224.63
2024-01-11T01:14:52.293Z,100219.42
2024-01-11T01:15:54.553Z,100218.56
2024-01-11T01:16:57.173Z,100221.17
2024-01-11T01:17:59.902Z,100207.29
2024-01-11T01:19:03.146Z,100218.56
2024-01-11T01:20:07.014Z,100203.82
2024-01-11T01:21:09.910Z,100205.56
2024-01-11T01:22:12.254Z,100199.47
2024-01-11T01:23:14.849Z,100204.70
2024-01-11T01:24:17.157Z,100211.64
2024-01-11T01:25:21.405Z,100210.75
2024-01-11T01:26:24.554Z,100210.75
2024-01-11T01:27:27.363Z,100202.94
2024-01-11T01:28:29.717Z,100201.20
2024-01-11T01:29:32.623Z,100203.84
2024-01-11T01:30:35.385Z,100197.73
2024-01-11T01:31:37.814Z,100195.16
2024-01-11T01:32:40.842Z,100190.82
2024-01-11T01:33:43.631Z,100184.75
2024-01-11T01:34:48.557Z,100191.69
2024-01-11T01:35:50.413Z,100182.16
2024-01-11T01:36:53.004Z,100189.95
2024-01-11T01:37:55.964Z,100177.81
2024-01-11T01:38:58.734Z,100171.73
2024-01-11T01:40:01.539Z,100170.88
2024-01-11T01:41:04.069Z,100174.34
2024-01-11T01:42:06.508Z,100177.80
2024-01-11T01:43:09.269Z,100171.73
2024-01-11T01:44:11.695Z,100172.61
2024-01-11T01:45:17.240Z,100163.92
2024-01-11T01:46:23.889Z,100170.87
2024-01-11T01:47:28.204Z,100163.06
2024-01-11T01:48:31.125Z,100160.45
2024-01-11T01:49:34.350Z,100156.99
2024-01-11T01:50:37.191Z,100156.13
2024-01-11T01:51:40.135Z,100149.19
2024-01-11T01:52:43.492Z,100149.19
2024-01-11T01:53:47.246Z,100150.06
2024-01-11T01:54:51.069Z,100147.45
2024-01-11T01:55:53.897Z,100142.26
2024-01-11T01:56:56.998Z,100137.02
2024-01-11T01:58:00.784Z,100135.29
2024-01-11T01:59:05.523Z,100124.02
2024-01-11T02:00:11.366Z,100128.36
2024-01-11T02:01:16.611Z,100120.55
2024-01-11T02:02:21.640Z,100119.69
2024-01-11T02:03:26.986Z,100121.42
2024-01-11T02:04:29.330Z,100111.02
2024-01-11T02:05:31.854Z,100110.15
2024-01-11T02:06:35.565Z,100103.21
2024-01-11T02:07:38.444Z,100104.95
2024-01-11T02:08:43.041Z,100096.27
2024-01-11T02:09:46.282Z,100088.47
2024-01-11T02:10:49.539Z,100087.57
2024-01-11T02:11:53.760Z,100082.39
2024-01-11T02:12:56.164Z,100080.66
2024-01-11T02:13:59.044Z,100057.23
2024-01-11T02:15:01.910Z,100065.02
2024-01-11T02:16:05.528Z,100065.02
2024-01-11T02:17:08.406Z,100065.02
2024-01-11T02:18:11.050Z,100068.52
2024-01-11T02:19:14.448Z,100070.22
2024-01-11T02:20:17.215Z,100065.05
2024-01-11T02:21:19.974Z,100068.52
2024-01-11T02:22:31.834Z,100058.97
2024-01-11T02:23:38.283Z,100055.50
2024-01-11T02:24:41.218Z,100054.63
2024-01-11T02:25:43.692Z,100055.50
2024-01-11T02:28:11.497Z,100037.25
2024-01-11T02:29:14.261Z,100051.16
2024-01-11T02:30:18.521Z,100052.90
2024-01-11T02:31:20.965Z,100049.42
2024-01-11T02:32:23.922Z,100040.75
2024-01-11T02:33:26.590Z,100035.55
2024-01-11T02:34:30.451Z,100037.28
2024-01-11T02:35:35.724Z,100030.34
2024-01-11T02:36:38.206Z,100019.07
2024-01-11T02:37:40.975Z,100021.67
2024-01-11T02:38:44.043Z,100016.47
2024-01-11T02:39:46.577Z,100013.86
2024-01-11T02:40:50.240Z,100007.80
2024-01-11T02:41:53.975Z,100006.02
2024-01-11T02:42:56.510Z,99999.08
2024-01-11T02:44:01.103Z,100000.85
2024-01-11T02:46:17.555Z,100005.14
2024-01-11T02:47:19.819Z,99993.91
2024-01-11T02:48:22.332Z,99998.22
2024-01-11T02:49:24.844Z,99984.33
2024-01-11T02:50:27.788Z,99982.63
2024-01-11T02:51:30.118Z,99980.90
2024-01-11T02:52:32.326Z,99980.86
2024-01-11T02:53:35.127Z,99980.00
2024-01-11T02:54:37.382Z,99976.52
2024-01-11T02:55:41.488Z,99978.27
2024-01-11T02:56:43.979Z,99953.14
2024-01-11T02:57:46.335Z,99973.96
2024-01-11T02:58:48.999Z,99962.69
2024-01-11T02:59:52.403Z,99960.09
2024-01-11T03:00:54.822Z,99949.67
2024-01-11T03:01:57.132Z,99951.41
2024-01-11T03:02:59.739Z,99944.47
2024-01-11T03:04:02.269Z,99954.02
2024-01-11T03:05:05.162Z,99937.53
2024-01-11T03:06:08.471Z,99949.67
2024-01-11T03:07:11.996Z,99948.81
2024-01-11T03:08:15.265Z,99953.15
2024-01-11T03:09:18.085Z,99954.02
2024-01-11T03:10:21.131Z,99949.67
2024-01-11T03:11:23.927Z,99943.61
2024-01-11T03:12:26.677Z,99943.61
2024-01-11T03:13:29.148Z,99949.67
2024-01-11T03:14:31.787Z,99948.80
2024-01-11T03:15:34.447Z,99938.41
2024-01-11T03:16:37.007Z,99933.20
2024-01-11T03:17:39.300Z,99940.13
2024-01-11T03:18:42.333Z,99928.86
2024-01-11T03:19:44.700Z,99924.52
2024-01-11T03:20:48.032Z,99920.19
2024-01-11T03:21:50.809Z,99921.05
2024-01-11T03:22:53.871Z,99911.52
2024-01-11T03:23:56.278Z,99914.11
2024-01-11T03:24:58.408Z,99914.98
2024-01-11T03:26:00.798Z,99902.84
2024-01-11T03:27:03.326Z,99915.84
2024-01-11T03:28:06.063Z,99905.44
2024-01-11T03:29:08.573Z,99901.09
2024-01-11T03:30:13.663Z,99895.03
2024-01-11T03:31:16.446Z,99895.89
2024-01-11T03:32:18.972Z,99884.61
2024-01-11T03:33:21.771Z,99883.75
2024-01-11T03:34:24.453Z,99875.95
2024-01-11T03:35:26.947Z,99878.55
2024-01-11T03:36:29.735Z,99871.61
2024-01-11T03:37:32.251Z,99874.20
2024-01-11T03:38:35.276Z,99872.47
2024-01-11T03:39:37.739Z,99870.73
2024-01-11T03:40:40.277Z,99868.13
2024-01-11T03:41:45.873Z,99861.20
2024-01-11T03:42:48.289Z,99860.33
2024-01-11T03:43:51.307Z,99856.87
2024-01-11T03:44:53.522Z,99858.59
2024-01-11T03:45:55.941Z,99859.46
2024-01-11T03:46:58.949Z,99856.85
2024-01-11T03:48:01.462Z,99861.20
2024-01-11T03:49:04.791Z,99867.27
2024-01-11T03:50:07.943Z,99857.73
2024-01-11T03:51:10.828Z,99865.52
2024-01-11T03:52:13.169Z,99863.80
2024-01-11T03:53:15.606Z,99862.06
2024-01-11T03:54:18.263Z,99857.73
2024-01-11T03:55:22.540Z,99855.98
2024-01-11T03:56:25.560Z,99853.38
2024-01-11T03:57:28.469Z,99851.64
2024-01-11T03:58:30.877Z,99842.11
2024-01-11T03:59:33.133Z,99839.50
2024-01-11T04:00:35.605Z,99848.13
2024-01-11T04:01:42.015Z,99846.41
2024-01-11T04:02:44.344Z,99830.83
2024-01-11T04:03:47.116Z,99837.72
2024-01-11T04:04:49.883Z,99839.45
2024-01-11T04:05:52.206Z,99839.45
2024-01-11T04:06:54.628Z,99841.17
2024-01-11T04:07:56.962Z,99832.50
2024-01-11T04:08:59.113Z,99834.24
2024-01-11T04:10:01.706Z,99829.03
2024-01-11T04:11:04.597Z,99830.78
2024-01-11T04:12:07.329Z,99831.65
2024-01-11T04:13:09.727Z,99831.64
2024-01-11T04:14:12.586Z,99829.05
2024-01-11T04:15:15.477Z,99822.09
2024-01-11T04:16:19.465Z,99818.63
2024-01-11T04:17:22.051Z,99816.02
2024-01-11T04:18:24.773Z,99809.95
2024-01-11T04:19:27.413Z,99809.08
2024-01-11T04:20:30.074Z,99812.56
2024-01-11T04:21:32.936Z,99815.16
2024-01-11T04:22:35.440Z,99822.09
2024-01-11T04:23:37.900Z,99820.37
2024-01-11T04:24:42.686Z,99827.30
2024-01-11T04:25:45.134Z,99822.97
2024-01-11T04:26:48.332Z,99826.44
2024-01-11T04:27:50.717Z,99835.11
2024-01-11T04:28:56.380Z,99828.17
2024-01-11T04:29:58.608Z,99829.91
2024-01-11T04:31:00.935Z,99829.03
2024-01-11T04:32:03.672Z,99839.45
2024-01-11T04:33:06.885Z,99845.52
2024-01-11T04:34:09.845Z,99835.09
2024-01-11T04:35:12.099Z,99831.63
2024-01-11T04:36:15.407Z,99821.23
2024-01-11T04:37:19.350Z,99811.69
2024-01-11T04:38:21.738Z,99810.81
2024-01-11T04:39:24.150Z,99828.17
2024-01-11T04:40:28.225Z,99829.05
2024-01-11T04:41:30.879Z,99818.64
2024-01-11T04:42:33.288Z,99818.64
2024-01-11T04:43:42.908Z,99812.56
2024-01-11T04:44:45.821Z,99814.28
2024-01-11T04:45:48.555Z,99804.74
2024-01-11T04:46:51.218Z,99796.06
2024-01-11T04:47:53.927Z,99816.88
2024-01-11T04:48:57.131Z,99815.14
2024-01-11T04:50:00.557Z,99817.75
2024-01-11T04:51:03.608Z,99816.89
2024-01-11T04:52:06.651Z,99815.16
2024-01-11T04:53:08.971Z,99816.89
2024-01-11T04:54:11.337Z,99816.89
2024-01-11T04:55:14.254Z,99811.69
2024-01-11T04:56:18.102Z,99817.75
2024-01-11T04:57:20.788Z,99825.56
2024-01-11T04:58:23.460Z,99825.56
2024-01-11T04:59:26.014Z,99824.69
2024-01-11T05:00:29.153Z,99818.61
2024-01-11T05:01:31.386Z,99826.43
2024-01-11T05:02:34.579Z,99827.30
2024-01-11T05:03:36.903Z,99827.30
2024-01-11T05:04:39.174Z,99820.34
2024-01-11T05:05:42.326Z,99822.95
2024-01-11T05:06:44.959Z,99819.47
2024-01-11T05:07:47.283Z,99812.52
2024-01-11T05:08:53.596Z,99811.66
2024-01-11T05:09:56.130Z,99808.19
2024-01-11T05:10:59.349Z,99799.52
2024-01-11T05:12:02.140Z,99802.94
2024-01-11T05:13:04.608Z,99796.86
2024-01-11T05:14:07.305Z,99802.98
2024-01-11T05:15:10.073Z,99806.47
2024-01-11T05:16:27.733Z,99803.00
2024-01-11T05:17:31.047Z,99796.94
2024-01-11T05:18:35.357Z,99801.27
2024-01-11T05:19:37.807Z,99792.60
2024-01-11T05:20:41.147Z,99780.45
2024-01-11T05:21:43.870Z,99784.81
2024-01-11T05:22:46.450Z,99788.28
2024-01-11T05:23:49.010Z,99781.34
2024-01-11T05:24:51.235Z,99783.95
2024-01-11T05:25:53.598Z,99782.21
2024-01-11T05:26:56.855Z,99781.33
2024-01-11T05:27:59.018Z,99771.80
2024-01-11T05:29:01.520Z,99788.28
2024-01-11T05:30:04.632Z,99790.05
2024-01-11T05:31:10.812Z,99781.38
2024-01-11T05:32:13.852Z,99785.72
2024-01-11T05:33:16.279Z,99786.59
2024-01-11T05:34:18.760Z,99792.67
2024-01-11T05:35:22.228Z,99788.33
2024-01-11T05:36:26.275Z,99786.59
2024-01-11T05:37:28.709Z,99777.05
2024-01-11T05:38:31.702Z,99783.99
2024-01-11T05:39:34.042Z,99777.94
2024-01-11T05:40:36.537Z,99777.94
2024-01-11T05:41:39.042Z,99773.60
2024-01-11T05:42:41.491Z,99780.55
2024-01-11T05:43:43.757Z,99782.27
2024-01-11T05:44:46.063Z,99780.55
2024-01-11T05:45:48.865Z,99773.59
2024-01-11T05:46:51.184Z,99771.87
2024-01-11T05:47:54.115Z,99776.20
2024-01-11T05:48:57.101Z,99775.34
2024-01-11T05:49:59.567Z,99780.55
2024-01-11T05:51:01.852Z,99784.00
2024-01-11T05:52:05.209Z,99789.21
2024-01-11T05:53:08.085Z,99775.33
2024-01-11T05:54:10.243Z,99778.80
2024-01-11T05:55:12.737Z,99769.25
2024-01-11T05:56:18.916Z,99758.84
2024-01-11T05:57:21.245Z,99757.97
2024-01-11T05:58:24.637Z,99759.70
2024-01-11T05:59:26.885Z,99753.62
2024-01-11T06:00:30.580Z,99746.69
2024-01-11T06:01:33.447Z,99743.22
2024-01-11T06:02:36.946Z,99734.55
2024-01-11T06:03:39.456Z,99734.55
2024-01-11T06:04:41.825Z,99741.49
2024-01-11T06:05:44.398Z,99747.56
2024-01-11T06:06:47.037Z,99743.22
2024-01-11T06:07:49.405Z,99745.83
2024-01-11T06:08:51.970Z,99747.58
2024-01-11T06:09:54.281Z,99744.98
2024-01-11T06:10:57.458Z,99744.12
2024-01-11T06:11:59.796Z,99737.19
2024-01-11T06:13:02.154Z,99734.58
2024-01-11T06:14:04.554Z,99742.39
2024-01-11T06:15:07.277Z,99741.51
2024-01-11T06:16:12.223Z,99742.37
2024-01-11T06:17:14.248Z,99740.63
2024-01-11T06:18:16.967Z,99734.55
2024-01-11T06:19:21.727Z,99742.36
2024-01-11T06:20:25.256Z,99749.30
2024-01-11T06:21:27.509Z,99751.02
2024-01-11T06:22:30.860Z,99751.02
2024-01-11T06:23:33.244Z,99751.02
2024-01-11T06:24:36.218Z,99743.22
2024-01-11T06:25:38.989Z,99729.34
2024-01-11T06:26:41.641Z,99736.23
2024-01-11T06:27:44.042Z,99742.31
2024-01-11T06:28:46.153Z,99739.75
2024-01-11T06:29:48.860Z,99738.88
2024-01-11T06:30:51.506Z,99729.34
2024-01-11T06:31:53.866Z,99738.88
2024-01-11T06:32:56.331Z,99722.40
2024-01-11T06:33:58.943Z,99727.60
2024-01-11T06:35:02.115Z,99727.60
2024-01-11T06:36:12.985Z,99724.13
2024-01-11T06:37:15.982Z,99731.03
2024-01-11T06:38:18.422Z,99731.91
2024-01-11T06:39:20.736Z,99731.91
2024-01-11T06:40:24.681Z,99725.82
2024-01-11T06:41:27.495Z,99736.22
2024-01-11T06:42:31.763Z,99732.75
2024-01-11T06:43:33.995Z,99730.14
2024-01-11T06:44:37.278Z,99724.94
2024-01-11T06:45:39.449Z,99726.66
2024-01-11T06:46:42.168Z,99721.44
2024-01-11T06:47:44.463Z,99719.71
2024-01-11T06:48:47.337Z,99721.44
2024-01-11T06:49:50.063Z,99723.17
2024-01-11T06:50:52.589Z,99725.77
2024-01-11T06:51:54.786Z,99722.30
2024-01-11T06:52:57.626Z,99723.19
2024-01-11T06:54:01.576Z,99721.44
2024-01-11T06:55:05.108Z,99724.91
2024-01-11T06:56:21.822Z,99724.91
2024-01-11T06:57:24.251Z,99722.33
2024-01-11T06:58:26.884Z,99721.45
2024-01-11T06:59:30.036Z,99724.94
2024-01-11T07:00:32.823Z,99731.87
2024-01-11T07:01:35.200Z,99721.45
2024-01-11T07:02:37.459Z,99718.84
2024-01-11T07:03:40.042Z,99705.83
2024-01-11T07:04:45.561Z,99715.38
2024-01-11T07:05:48.371Z,99713.64
2024-01-11T07:06:52.460Z,99711.91
2024-01-11T07:07:57.043Z,99709.30
2024-01-11T07:08:59.588Z,99703.23
2024-01-11T07:10:02.362Z,99705.83
2024-01-11T07:11:05.211Z,99700.62
2024-01-11T07:12:07.744Z,99700.59
2024-01-11T07:13:10.502Z,99697.13
2024-01-11T07:14:13.490Z,99696.22
2024-01-11T07:15:18.223Z,99695.34
2024-01-11T07:16:20.923Z,99706.62
2024-01-11T07:17:24.285Z,99695.34
2024-01-11T07:18:28.968Z,99695.34
2024-01-11T07:19:33.675Z,99695.34
2024-01-11T07:20:38.383Z,99694.47
2024-01-11T07:21:42.240Z,99681.45
2024-01-11T07:22:45.569Z,99681.45
2024-01-11T07:23:48.330Z,99693.59
2024-01-11T07:24:51.541Z,99691.86
2024-01-11T07:25:56.178Z,99690.98
2024-01-11T07:27:04.581Z,99693.58
2024-01-11T07:28:10.522Z,99688.37
2024-01-11T07:29:15.012Z,99679.69
2024-01-11T07:30:19.489Z,99687.49
2024-01-11T07:31:22.692Z,99687.50
2024-01-11T07:32:28.137Z,99684.03
2024-01-11T07:33:34.763Z,99679.69
2024-01-11T07:34:38.220Z,99681.41
2024-01-11T07:35:41.940Z,99686.61
2024-01-11T07:36:44.502Z,99681.39
2024-01-11T07:37:49.532Z,99681.39
2024-01-11T07:38:53.440Z,99678.78
2024-01-11T07:39:56.983Z,99675.31
2024-01-11T07:41:05.000Z,99676.19
2024-01-11T07:42:13.033Z,99675.30
2024-01-11T07:43:19.384Z,99678.73
2024-01-11T07:44:28.052Z,99676.11
2024-01-11T07:45:32.139Z,99670.02
2024-01-11T07:46:39.491Z,99670.02
2024-01-11T07:47:45.141Z,99670.86
2024-01-11T07:48:49.645Z,99668.25
2024-01-11T07:49:56.933Z,99667.38
2024-01-11T07:51:01.477Z,99668.23
2024-01-11T07:52:07.496Z,99662.17
2024-01-11T07:53:10.031Z,99663.89
2024-01-11T07:54:15.119Z,99660.41
2024-01-11T07:55:18.560Z,99660.42
2024-01-11T07:56:23.814Z,99659.56
2024-01-11T07:57:28.433Z,99658.69
2024-01-11T07:58:36.379Z,99657.81
2024-01-11T07:59:40.927Z,99656.95
2024-01-11T08:00:47.915Z,99650.81
2024-01-11T08:01:54.954Z,99649.94
2024-01-11T08:02:58.673Z,99652.53
2024-01-11T08:04:01.672Z,99653.42
2024-01-11T08:05:05.253Z,99656.89
2024-01-11T08:06:15.908Z,99656.88
2024-01-11T08:07:19.332Z,99658.60
2024-01-11T08:08:24.366Z,99657.73
2024-01-11T08:09:28.096Z,99660.33
2024-01-11T08:10:34.360Z,99656.84
2024-01-11T08:11:47.016Z,99655.11
2024-01-11T08:12:47.489Z,99643.81
2024-01-11T08:13:51.965Z,99647.27
2024-01-11T08:14:58.037Z,99650.75
2024-01-11T08:17:15.692Z,99657.55
2024-01-11T08:18:21.287Z,99655.97
2024-01-11T08:19:24.013Z,99657.70
2024-01-11T08:20:26.535Z,99654.22
2024-01-11T08:21:29.358Z,99661.16
2024-01-11T08:22:32.682Z,99666.36
2024-01-11T08:23:35.030Z,99663.77
2024-01-11T08:24:37.635Z,99669.84
2024-01-11T08:25:40.513Z,99668.96
2024-01-11T08:26:43.634Z,99662.88
2024-01-11T08:27:46.087Z,99664.60
2024-01-11T08:28:48.605Z,99663.65
2024-01-11T08:29:51.372Z,99653.23
2024-01-11T08:30:54.510Z,99650.63
2024-01-11T08:31:56.835Z,99659.31
2024-01-11T08:33:00.094Z,99666.27
2024-01-11T08:34:02.864Z,99649.78
2024-01-11T08:35:06.364Z,99652.39
2024-01-11T08:36:09.880Z,99654.12
2024-01-11T08:37:12.883Z,99651.56
2024-01-11T08:38:16.208Z,99649.84
2024-01-11T08:39:18.787Z,99647.23
2024-01-11T08:40:22.097Z,99649.85
2024-01-11T08:41:25.547Z,99650.72
2024-01-11T08:42:28.320Z,99653.31
2024-01-11T08:43:30.642Z,99647.23
2024-01-11T08:44:35.074Z,99647.19
2024-01-11T08:45:37.395Z,99633.33
2024-01-11T08:46:40.875Z,99641.14
2024-01-11T08:47:43.235Z,99644.58
2024-01-11T08:48:46.106Z,99632.42
2024-01-11T08:49:50.515Z,99641.95
2024-01-11T08:50:53.997Z,99634.12
2024-01-11T08:51:56.462Z,99642.81
2024-01-11T08:52:59.442Z,99628.05
2024-01-11T08:54:02.003Z,99627.16
2024-01-11T08:55:04.664Z,99624.55
2024-01-11T08:56:08.137Z,99622.83
2024-01-11T08:57:10.390Z,99623.70
2024-01-11T08:58:13.071Z,99620.25
2024-01-11T08:59:15.784Z,99619.37
2024-01-11T09:00:19.760Z,99620.23
2024-01-11T09:01:22.277Z,99618.48
2024-01-11T09:02:27.577Z,99619.34
2024-01-11T09:03:29.921Z,99611.52
2024-01-11T09:04:32.642Z,99615.00
2024-01-11T09:05:35.076Z,99608.92
2024-01-11T09:06:38.211Z,99600.24
2024-01-11T09:07:40.925Z,99601.98
2024-01-11T09:08:43.670Z,99594.14
2024-01-11T09:09:51.452Z,99591.50
2024-01-11T09:10:50.567Z,99594.91
2024-01-11T09:11:52.845Z,99599.25
2024-01-11T09:12:55.155Z,99598.44
2024-01-11T09:13:57.484Z,99593.23
2024-01-11T09:15:00.237Z,99594.11
2024-01-11T09:16:02.803Z,99591.52
2024-01-11T09:17:05.253Z,99585.45
2024-01-11T09:18:08.737Z,99588.95
2024-01-11T09:19:11.365Z,99587.23
2024-01-11T09:20:15.340Z,99577.69
2024-01-11T09:21:17.831Z,99582.02
2024-01-11T09:22:20.263Z,99576.81
2024-01-11T09:23:23.108Z,99570.73
2024-01-11T09:24:27.673Z,99566.39
2024-01-11T09:25:31.444Z,99559.44
2024-01-11T09:26:34.784Z,99557.67
2024-01-11T09:27:37.509Z,99551.59
2024-01-11T09:28:40.488Z,99555.09
2024-01-11T09:29:46.668Z,99555.97
2024-01-11T09:30:49.501Z,99549.02
2024-01-11T09:31:51.776Z,99558.59
2024-01-11T09:32:54.741Z,99556.85
2024-01-11T09:33:57.169Z,99560.30
2024-01-11T09:35:00.044Z,99555.09
2024-01-11T09:36:02.959Z,99552.48
2024-01-11T09:37:06.035Z,99549.03
2024-01-11T09:38:09.037Z,99551.64
2024-01-11T09:39:11.788Z,99543.83
2024-01-11T09:40:15.314Z,99535.13
2024-01-11T09:41:18.733Z,99536.86
2024-01-11T09:42:21.118Z,99533.38
2024-01-11T09:43:24.569Z,99540.31
2024-01-11T09:44:27.593Z,99531.65
2024-01-11T09:45:30.464Z,99533.38
2024-01-11T09:46:33.679Z,99535.12
2024-01-11T09:47:37.074Z,99532.53
2024-01-11T09:48:40.988Z,99526.44
2024-01-11T09:49:45.794Z,99530.78
2024-01-11T09:50:51.155Z,99532.53
2024-01-11T09:51:54.718Z,99527.34
2024-01-11T09:52:57.619Z,99525.59
2024-01-11T09:54:00.761Z,99517.77
2024-01-11T09:55:04.096Z,99529.03
2024-01-11T09:56:09.791Z,99523.82
2024-01-11T09:57:12.220Z,99523.84
2024-01-11T09:58:15.258Z,99519.50
2024-01-11T09:59:20.970Z,99526.44
2024-01-11T10:00:24.799Z,99522.97
2024-01-11T10:01:27.740Z,99517.75
2024-01-11T10:02:30.604Z,99517.75
2024-01-11T10:03:33.372Z,99518.63
2024-01-11T10:04:36.152Z,99516.86
2024-01-11T10:05:40.427Z,99513.36
2024-01-11T10:06:47.248Z,99515.07
2024-01-11T10:07:49.694Z,99507.25
2024-01-11T10:08:52.568Z,99504.60
2024-01-11T10:09:55.438Z,99501.11
2024-01-11T10:10:58.869Z,99506.30
2024-01-11T10:12:01.184Z,99498.48
2024-01-11T10:13:03.721Z,99492.38
2024-01-11T10:14:07.025Z,99501.94
2024-01-11T10:15:10.845Z,99486.27
2024-01-11T10:16:14.315Z,99486.31
2024-01-11T10:17:20.345Z,99481.94
2024-01-11T10:18:21.174Z,99474.13
2024-01-11T10:19:23.854Z,99477.61
2024-01-11T10:20:27.654Z,99475.88
2024-01-11T10:21:31.069Z,99461.12
2024-01-11T10:22:33.520Z,99479.36
2024-01-11T10:23:36.726Z,99469.80
2024-01-11T10:24:40.263Z,99481.09
2024-01-11T10:25:43.777Z,99474.16
2024-01-11T10:26:46.700Z,99469.80
2024-01-11T10:27:49.017Z,99470.67
2024-01-11T10:28:51.666Z,99467.19
2024-01-11T10:29:53.933Z,99464.58
2024-01-11T10:30:57.815Z,99465.50
2024-01-11T10:32:00.894Z,99462.91
2024-01-11T10:33:03.994Z,99463.78
2024-01-11T10:34:07.043Z,99466.44
2024-01-11T10:35:09.418Z,99463.78
2024-01-11T10:36:12.823Z,99464.62
2024-01-11T10:37:15.787Z,99466.34
2024-01-11T10:38:18.335Z,99455.04
2024-01-11T10:39:26.114Z,99458.49
2024-01-11T10:40:28.842Z,99467.19
2024-01-11T10:41:34.816Z,99462.00
2024-01-11T10:42:45.963Z,99466.31
2024-01-11T10:43:49.517Z,99460.22
2024-01-11T10:44:55.186Z,99455.00
2024-01-11T10:46:00.329Z,99453.28
2024-01-11T10:47:04.675Z,99449.81
2024-01-11T10:48:10.421Z,99452.37
2024-01-11T10:49:16.819Z,99448.03
2024-01-11T10:50:20.707Z,99444.63
2024-01-11T10:51:26.002Z,99445.48
2024-01-11T10:52:33.944Z,99431.59
2024-01-11T10:53:43.498Z,99438.56
2024-01-11T10:54:47.887Z,99428.98
2024-01-11T10:55:51.525Z,99426.38
2024-01-11T10:56:55.464Z,99434.22
2024-01-11T10:58:00.866Z,99438.56
2024-01-11T10:59:04.604Z,99429.87
2024-01-11T11:00:08.032Z,99437.69
2024-01-11T11:01:15.120Z,99426.34
2024-01-11T11:02:18.616Z,99417.69
2024-01-11T11:03:24.107Z,99431.59
2024-01-11T11:04:27.913Z,99425.55
2024-01-11T11:05:32.089Z,99423.81
2024-01-11T11:06:40.986Z,99427.27
2024-01-11T11:07:45.089Z,99424.66
2024-01-11T11:08:50.707Z,99423.80
2024-01-11T11:09:54.025Z,99418.56
2024-01-11T11:10:59.424Z,99417.69
2024-01-11T11:12:01.816Z,99418.53
2024-01-11T11:13:06.009Z,99405.52
2024-01-11T11:14:09.807Z,99411.59
2024-01-11T11:15:13.292Z,99404.62
2024-01-11T11:16:19.196Z,99402.01
2024-01-11T11:17:22.564Z,99402.01
2024-01-11T11:18:26.480Z,99397.69
2024-01-11T11:19:30.116Z,99401.13
2024-01-11T11:20:33.803Z,99395.92
2024-01-11T11:21:46.580Z,99400.27
2024-01-11T11:23:05.784Z,99401.09
2024-01-11T11:24:08.125Z,99395.88
2024-01-11T11:25:11.297Z,99404.50
2024-01-11T11:26:17.874Z,99401.01
2024-01-11T11:27:20.357Z,99394.94
2024-01-11T11:28:23.553Z,99397.52
2024-01-11T11:29:27.029Z,99394.91
2024-01-11T11:30:30.022Z,99399.24
2024-01-11T11:31:41.347Z,99394.03
2024-01-11T11:32:44.591Z,99391.45
2024-01-11T11:33:49.430Z,99393.17
2024-01-11T11:34:53.047Z,99380.14
2024-01-11T11:35:59.828Z,99387.08
2024-01-11T11:37:02.888Z,99373.19
2024-01-11T11:38:06.608Z,99373.19
2024-01-11T11:39:11.391Z,99375.81
2024-01-11T11:40:15.055Z,99381.91
2024-01-11T11:41:17.773Z,99374.06
2024-01-11T11:42:25.025Z,99376.67
2024-01-11T11:43:28.916Z,99367.13
2024-01-11T11:44:31.587Z,99373.19
2024-01-11T11:45:34.034Z,99367.09
2024-01-11T11:46:38.339Z,99369.70
2024-01-11T11:47:41.144Z,99354.97
2024-01-11T11:48:49.359Z,99356.71
2024-01-11T11:50:10.577Z,99359.31
2024-01-11T11:51:18.666Z,99370.58
2024-01-11T11:52:21.433Z,99364.51
2024-01-11T11:53:24.351Z,99354.06
2024-01-11T11:54:26.902Z,99366.19
2024-01-11T11:55:30.591Z,99362.72
2024-01-11T11:56:34.693Z,99359.23
2024-01-11T11:57:37.160Z,99362.70
2024-01-11T11:58:40.339Z,99364.39
2024-01-11T11:59:44.905Z,99358.34
2024-01-11T12:00:48.126Z,99347.96
2024-01-11T12:01:53.143Z,99349.69
2024-01-11T12:02:58.612Z,99348.84
2024-01-11T12:04:00.984Z,99348.84
2024-01-11T12:05:03.706Z,99347.94
2024-01-11T12:06:09.403Z,99349.66
2024-01-11T12:07:11.969Z,99347.05
2024-01-11T12:08:14.426Z,99343.59
2024-01-11T12:09:19.101Z,99352.30
2024-01-11T12:10:22.181Z,99343.59
2024-01-11T12:11:24.883Z,99335.77
2024-01-11T12:12:27.507Z,99344.45
2024-01-11T12:13:30.280Z,99332.26
2024-01-11T12:14:33.018Z,99333.95
2024-01-11T12:15:35.700Z,99339.19
2024-01-11T12:16:37.993Z,99340.05
2024-01-11T12:17:40.741Z,99339.19
2024-01-11T12:18:43.655Z,99327.91
2024-01-11T12:19:46.525Z,99334.84
2024-01-11T12:20:49.541Z,99333.07
2024-01-11T12:21:51.863Z,99325.28
2024-01-11T12:22:54.925Z,99333.95
2024-01-11T12:23:57.879Z,99333.07
2024-01-11T12:25:00.576Z,99323.53